SBMO/MCZ METAR and TAF weather

Enter ICAO airport designator
Station Type Date Time Source
SBMO METAR 2024/07/12 19:00 UTC NOAA

SBMO 121900Z 12015KT 9999 VCSH SCT023 SCT050 26/21 Q1018


Station Type Date Time Source
SBMO Decoded METAR 2024/07/12 19:00 UTC NOAA

Maceio Aeroporto , Brazil (SBMO) 09-31S 035-47W 115M
Jul 12, 2024 - 03:00 PM EDT / 2024.07.12 1900 UTC
Wind: from the ESE (120 degrees) at 17 MPH (15 KT):0
Visibility: greater than 7 mile(s):0
Sky conditions: partly cloudy
Weather: showers in the vicinity
Temperature: 78 F (26 C)
Dew Point: 69 F (21 C)
Relative Humidity: 73%
Pressure (altimeter): 30.06 in. Hg (1018 hPa)
ob: SBMO 121900Z 12015KT 9999 VCSH SCT023 SCT050 26/21 Q1018
cycle: 19

Station Type Date Time Source
SBMO TAF 2024/07/12 18:36 UTC NOAA